Time;durP1;ratioP1;P1;durP2;ratioP2;P2;SDS_P1;SDS_P2;PMS_P1;PMS_P2;Temp;Humidity;BMP_temperature;BMP_pressure;BME280_temperature;BME280_humidity;BME280_pressure;Samples;Min_cycle;Max_cycle;Signal;HPM_P1;HPM_P2
2021/03/23 00:01:56;;;;;;;8.50;7.03;;;7.50;91.90;;;;;;5065444;28;20017;-39
2021/03/23 00:04:22;;;;;;;10.25;7.32;;;7.50;91.90;;;;;;5065291;28;20017;-34
2021/03/23 00:06:47;;;;;;;10.20;8.13;;;7.50;91.90;;;;;;5065433;28;20051;-34
2021/03/23 00:09:13;;;;;;;9.23;7.65;;;7.50;91.90;;;;;;5063707;28;20055;-38
2021/03/23 00:11:41;;;;;;;9.52;8.07;;;7.50;91.90;;;;;;5064931;28;20028;-37
2021/03/23 00:14:11;;;;;;;10.05;7.65;;;7.50;91.90;;;;;;5065424;28;20043;-37
2021/03/23 00:16:42;;;;;;;10.93;8.30;;;7.50;91.80;;;;;;5063691;28;20127;-38
2021/03/23 00:19:09;;;;;;;8.52;7.22;;;7.50;91.90;;;;;;5064794;28;20437;-32
2021/03/23 00:21:36;;;;;;;10.20;8.15;;;7.50;91.90;;;;;;5065093;28;20034;-35
2021/03/23 00:24:02;;;;;;;8.65;7.00;;;7.50;91.90;;;;;;5064988;28;20024;-38
2021/03/23 00:26:28;;;;;;;16.42;10.07;;;7.50;91.90;;;;;;5065298;28;20172;-34
2021/03/23 00:28:54;;;;;;;10.80;7.93;;;7.50;91.90;;;;;;5065544;28;20501;-39
2021/03/23 00:31:23;;;;;;;10.85;8.57;;;7.50;91.90;;;;;;5061958;28;20653;-38
2021/03/23 00:33:49;;;;;;;9.93;7.75;;;7.50;91.90;;;;;;5064820;28;20024;-34
2021/03/23 00:36:24;;;;;;;8.93;8.02;;;7.50;91.90;;;;;;5064786;28;20032;-33
2021/03/23 00:38:52;;;;;;;9.80;7.60;;;7.50;91.90;;;;;;5064862;28;20459;-38
2021/03/23 00:41:18;;;;;;;10.25;7.28;;;7.40;91.90;;;;;;5064710;28;20582;-36
2021/03/23 00:43:43;;;;;;;11.27;7.75;;;7.40;91.90;;;;;;5064085;28;20048;-44
2021/03/23 00:46:09;;;;;;;9.43;7.13;;;7.40;91.90;;;;;;5064485;28;20020;-36
2021/03/23 00:48:38;;;;;;;9.63;8.13;;;7.40;92.00;;;;;;5064688;28;20079;-39
2021/03/23 00:51:03;;;;;;;10.02;7.97;;;7.30;92.00;;;;;;5064264;28;20036;-38
2021/03/23 00:53:29;;;;;;;9.57;7.80;;;7.40;92.00;;;;;;5065151;28;20081;-39
2021/03/23 00:55:56;;;;;;;9.60;7.90;;;7.40;92.00;;;;;;5064784;28;20043;-36
2021/03/23 00:58:21;;;;;;;8.82;7.68;;;7.40;92.00;;;;;;5046979;28;513529;-37
2021/03/23 01:00:47;;;;;;;9.75;7.70;;;7.40;92.00;;;;;;5065416;28;20342;-37
2021/03/23 01:03:13;;;;;;;9.10;7.50;;;7.40;92.00;;;;;;5064823;28;20546;-35
2021/03/23 01:05:38;;;;;;;9.07;7.10;;;7.40;92.00;;;;;;5063395;28;20041;-34
2021/03/23 01:08:08;;;;;;;8.43;7.03;;;7.40;92.00;;;;;;5065102;28;20700;-37
2021/03/23 01:10:34;;;;;;;7.72;6.90;;;7.40;92.00;;;;;;5064830;28;20042;-35
2021/03/23 01:13:01;;;;;;;9.75;7.15;;;7.40;92.20;;;;;;5064264;28;20032;-37
2021/03/23 01:15:32;;;;;;;8.65;7.43;;;7.40;92.00;;;;;;5064993;28;20045;-36
2021/03/23 01:17:58;;;;;;;11.52;7.20;;;7.40;92.00;;;;;;5065175;28;20104;-38
2021/03/23 01:20:26;;;;;;;9.73;7.45;;;7.30;92.00;;;;;;5062386;28;20134;-36
2021/03/23 01:22:53;;;;;;;10.05;7.30;;;7.30;92.00;;;;;;5064949;28;20040;-35
2021/03/23 01:25:20;;;;;;;8.02;6.70;;;7.30;92.00;;;;;;5064559;28;20396;-37
2021/03/23 01:27:49;;;;;;;9.55;7.00;;;7.20;92.00;;;;;;5064635;28;20068;-37
2021/03/23 01:30:18;;;;;;;8.70;7.35;;;7.20;92.00;;;;;;5065006;28;20050;-34
2021/03/23 01:32:44;;;;;;;8.60;7.35;;;7.20;92.00;;;;;;5064255;28;20055;-35
2021/03/23 01:35:10;;;;;;;7.78;6.75;;;7.20;92.10;;;;;;5065031;28;20725;-38
2021/03/23 01:37:35;;;;;;;9.63;7.07;;;7.20;92.10;;;;;;5064420;28;20106;-37
2021/03/23 01:40:02;;;;;;;9.27;7.65;;;7.20;92.10;;;;;;5064568;28;20098;-34
2021/03/23 01:42:46;;;;;;;9.32;7.07;;;7.20;92.30;;;;;;5064695;28;20036;-37
2021/03/23 01:45:23;;;;;;;8.20;7.13;;;7.20;92.00;;;;;;5054465;28;20035;-35
2021/03/23 01:47:50;;;;;;;8.93;6.93;;;7.20;92.00;;;;;;5063864;28;20352;-37
2021/03/23 01:50:17;;;;;;;10.35;7.20;;;7.20;92.00;;;;;;5063943;28;20146;-37
2021/03/23 01:52:51;;;;;;;8.05;6.93;;;7.20;92.00;;;;;;5064454;28;20043;-37
2021/03/23 01:55:17;;;;;;;10.80;7.25;;;7.20;92.00;;;;;;5063457;28;20024;-35
2021/03/23 01:57:46;;;;;;;10.02;7.78;;;7.20;92.00;;;;;;5062507;28;20052;-34
2021/03/23 02:00:12;;;;;;;8.90;7.38;;;7.20;92.00;;;;;;5058447;28;20056;-36
2021/03/23 02:02:37;;;;;;;7.97;7.18;;;7.20;92.00;;;;;;5062294;28;20048;-36
2021/03/23 02:05:06;;;;;;;9.88;7.47;;;7.10;92.10;;;;;;5062431;28;20127;-38
2021/03/23 02:07:31;;;;;;;9.95;7.63;;;7.10;92.10;;;;;;5062622;28;20029;-38
2021/03/23 02:09:57;;;;;;;9.40;7.70;;;7.10;92.10;;;;;;5062327;28;20048;-35
2021/03/23 02:12:26;;;;;;;10.82;8.00;;;7.10;92.10;;;;;;5063893;28;20029;-38
2021/03/23 02:14:53;;;;;;;9.68;7.78;;;7.10;92.10;;;;;;5063322;28;20139;-35
2021/03/23 02:17:32;;;;;;;12.45;8.50;;;7.00;92.10;;;;;;5064163;28;20620;-37
2021/03/23 02:20:15;;;;;;;10.93;7.88;;;7.00;92.10;;;;;;5064478;28;20046;-36
2021/03/23 02:22:46;;;;;;;9.23;7.53;;;7.10;92.10;;;;;;5063584;28;20043;-38
2021/03/23 02:25:17;;;;;;;11.23;7.22;;;7.00;92.10;;;;;;5063988;28;20024;-38
2021/03/23 02:27:43;;;;;;;9.40;7.07;;;7.00;92.10;;;;;;5064132;28;20024;-37
2021/03/23 02:30:28;;;;;;;9.52;6.97;;;7.00;92.10;;;;;;5063047;28;20040;-35
2021/03/23 02:32:54;;;;;;;10.98;7.18;;;7.10;92.10;;;;;;5064044;28;20021;-38
2021/03/23 02:35:19;;;;;;;9.07;7.47;;;7.10;92.00;;;;;;5063933;28;20822;-38
2021/03/23 02:37:45;;;;;;;10.48;7.22;;;7.10;92.00;;;;;;5063508;28;20254;-37
2021/03/23 02:40:11;;;;;;;8.50;6.82;;;7.20;92.00;;;;;;5063650;28;20102;-37
2021/03/23 02:42:36;;;;;;;8.45;6.70;;;7.20;92.00;;;;;;5063972;28;20029;-35
2021/03/23 02:45:03;;;;;;;10.57;7.85;;;7.20;92.00;;;;;;5063161;28;20120;-39
2021/03/23 02:47:28;;;;;;;8.68;7.28;;;7.20;92.00;;;;;;5064140;28;20031;-36
2021/03/23 02:49:54;;;;;;;11.68;6.97;;;7.20;92.00;;;;;;5063410;28;20028;-38
2021/03/23 02:52:19;;;;;;;9.90;7.50;;;7.20;92.10;;;;;;5063496;28;20035;-37
2021/03/23 02:54:45;;;;;;;8.63;7.63;;;7.20;92.10;;;;;;5063712;28;20044;-40
2021/03/23 02:57:10;;;;;;;10.13;8.10;;;7.20;92.10;;;;;;5063063;28;20048;-36
2021/03/23 02:59:37;;;;;;;10.93;7.93;;;7.20;92.10;;;;;;5063878;28;20444;-38
2021/03/23 03:02:03;;;;;;;11.55;8.80;;;7.20;92.10;;;;;;5063486;28;20078;-33
2021/03/23 03:04:30;;;;;;;11.07;8.77;;;7.20;92.10;;;;;;5063428;28;20656;-38
2021/03/23 03:06:56;;;;;;;11.07;8.43;;;7.20;92.10;;;;;;5063753;28;20033;-38
2021/03/23 03:09:21;;;;;;;9.48;7.70;;;7.20;92.10;;;;;;5063333;28;20043;-39
2021/03/23 03:11:47;;;;;;;12.82;9.10;;;7.20;92.10;;;;;;5062928;28;20074;-40
2021/03/23 03:14:13;;;;;;;10.85;9.43;;;7.20;92.10;;;;;;5063708;28;20119;-38
2021/03/23 03:16:41;;;;;;;11.77;9.20;;;7.20;92.10;;;;;;5063230;28;20046;-39
2021/03/23 03:19:07;;;;;;;15.02;10.73;;;7.20;92.10;;;;;;5063128;28;20032;-42
2021/03/23 03:21:32;;;;;;;11.93;9.30;;;7.20;92.10;;;;;;5063506;28;20394;-39
2021/03/23 03:23:58;;;;;;;13.65;10.25;;;7.20;92.10;;;;;;5063591;28;20047;-36
2021/03/23 03:26:23;;;;;;;12.68;9.32;;;7.20;92.20;;;;;;5062374;28;20035;-35
2021/03/23 03:28:52;;;;;;;13.95;9.63;;;7.20;92.20;;;;;;5063172;28;20644;-39
2021/03/23 03:31:24;;;;;;;12.85;9.80;;;7.20;92.20;;;;;;5063148;28;20024;-37
2021/03/23 03:33:53;;;;;;;13.18;10.25;;;7.20;92.20;;;;;;5052020;28;20054;-38
2021/03/23 03:36:22;;;;;;;15.50;10.57;;;7.20;92.20;;;;;;5063084;28;20090;-33
2021/03/23 03:38:48;;;;;;;14.88;10.73;;;7.20;92.20;;;;;;5063293;28;20140;-36
2021/03/23 03:41:20;;;;;;;11.88;10.23;;;7.20;92.20;;;;;;5062426;28;20417;-38
2021/03/23 03:43:46;;;;;;;13.00;10.57;;;7.20;92.20;;;;;;5065970;28;20029;-37
2021/03/23 03:46:11;;;;;;;15.70;11.50;;;7.20;92.20;;;;;;5065982;28;20086;-34
2021/03/23 03:48:37;;;;;;;13.93;10.70;;;7.20;92.20;;;;;;5066656;28;20024;-37
2021/03/23 03:51:03;;;;;;;14.18;11.18;;;7.20;92.20;;;;;;5065964;28;20028;-45
2021/03/23 03:53:29;;;;;;;14.93;11.30;;;7.20;92.20;;;;;;5064965;28;20105;-38
2021/03/23 03:55:55;;;;;;;15.35;12.10;;;7.20;92.20;;;;;;5065308;28;20447;-36
2021/03/23 03:58:21;;;;;;;15.60;12.48;;;7.20;92.30;;;;;;5064924;28;20199;-39
2021/03/23 04:00:47;;;;;;;15.93;12.43;;;7.10;92.30;;;;;;5065168;28;20029;-37
2021/03/23 04:03:16;;;;;;;16.58;12.68;;;7.10;92.60;;;;;;5065397;28;20021;-38
2021/03/23 04:05:44;;;;;;;16.20;11.32;;;7.10;92.40;;;;;;5065490;28;20054;-37
2021/03/23 04:08:13;;;;;;;19.90;14.07;;;7.10;92.40;;;;;;5066027;28;20020;-40
2021/03/23 04:10:40;;;;;;;19.52;13.43;;;7.10;92.40;;;;;;5067953;28;20162;-38
2021/03/23 04:13:05;;;;;;;20.25;13.80;;;7.00;92.40;;;;;;5068059;28;20384;-35
2021/03/23 04:15:32;;;;;;;21.02;14.32;;;7.00;92.40;;;;;;5067424;28;20017;-39
2021/03/23 04:17:58;;;;;;;20.73;14.55;;;7.00;92.40;;;;;;5067801;28;20035;-39
2021/03/23 04:20:25;;;;;;;19.88;14.60;;;7.00;92.40;;;;;;5067677;28;20025;-38
2021/03/23 04:22:51;;;;;;;20.15;15.52;;;7.00;92.40;;;;;;5065989;28;20117;-35
2021/03/23 04:25:19;;;;;;;20.92;15.23;;;7.00;92.40;;;;;;5065637;28;20051;-38
2021/03/23 04:27:45;;;;;;;19.80;14.18;;;7.00;92.40;;;;;;5064714;28;20363;-38
2021/03/23 04:30:11;;;;;;;19.25;14.65;;;7.00;92.40;;;;;;5064890;28;20132;-39
2021/03/23 04:32:38;;;;;;;19.85;14.70;;;7.00;92.40;;;;;;5065176;28;20028;-36
2021/03/23 04:35:06;;;;;;;18.35;14.38;;;7.00;92.40;;;;;;5065191;28;20016;-40
2021/03/23 04:37:33;;;;;;;19.63;14.95;;;7.00;92.40;;;;;;5065015;28;20040;-39
2021/03/23 04:40:03;;;;;;;20.85;14.95;;;6.90;92.50;;;;;;5066233;28;20387;-37
2021/03/23 04:42:29;;;;;;;21.10;15.48;;;6.90;92.50;;;;;;5066080;28;20040;-39
2021/03/23 04:44:55;;;;;;;21.90;15.30;;;6.90;92.50;;;;;;5065817;28;20028;-38
2021/03/23 04:47:20;;;;;;;19.45;15.07;;;6.90;92.50;;;;;;5066574;28;20045;-38
2021/03/23 04:49:46;;;;;;;20.95;15.00;;;6.80;92.50;;;;;;5064848;28;20155;-37
2021/03/23 04:52:11;;;;;;;21.98;15.68;;;6.80;92.80;;;;;;5065196;28;20049;-36
2021/03/23 04:54:37;;;;;;;23.08;16.38;;;6.80;92.60;;;;;;5063999;28;20497;-38
2021/03/23 04:57:03;;;;;;;20.58;14.90;;;6.80;92.60;;;;;;5064508;28;20757;-39
2021/03/23 04:59:28;;;;;;;21.77;16.38;;;6.80;92.60;;;;;;5064948;28;20021;-39
2021/03/23 05:01:54;;;;;;;23.92;15.30;;;6.80;92.70;;;;;;5065177;28;20440;-37
2021/03/23 05:04:20;;;;;;;20.30;15.32;;;6.80;92.70;;;;;;5064696;28;20016;-36
2021/03/23 05:06:46;;;;;;;22.23;16.52;;;6.80;92.60;;;;;;5065219;28;20380;-38
2021/03/23 05:09:12;;;;;;;24.10;15.45;;;6.80;92.70;;;;;;5065484;28;20043;-35
2021/03/23 05:11:40;;;;;;;22.05;16.08;;;6.80;92.70;;;;;;5065504;28;20035;-36
2021/03/23 05:14:07;;;;;;;21.92;15.63;;;6.80;92.70;;;;;;5065553;28;20044;-36
2021/03/23 05:16:33;;;;;;;22.65;15.80;;;6.80;92.70;;;;;;5065183;28;20024;-38
2021/03/23 05:19:00;;;;;;;23.35;16.42;;;6.80;92.70;;;;;;5065097;28;20025;-37
2021/03/23 05:21:27;;;;;;;20.65;15.50;;;6.80;92.80;;;;;;5065202;28;20031;-35
2021/03/23 05:23:56;;;;;;;21.70;15.85;;;6.80;92.70;;;;;;5065413;28;20058;-36
2021/03/23 05:26:22;;;;;;;22.92;16.40;;;6.70;92.70;;;;;;5065172;28;20119;-41
2021/03/23 05:28:47;;;;;;;24.45;17.65;;;6.80;92.80;;;;;;5065277;28;20159;-37
2021/03/23 05:31:15;;;;;;;21.23;15.88;;;6.80;92.80;;;;;;5065260;28;20033;-38
2021/03/23 05:33:41;;;;;;;22.73;15.68;;;6.70;92.80;;;;;;5064693;28;20111;-38
2021/03/23 05:36:07;;;;;;;24.13;16.63;;;6.70;92.80;;;;;;5064918;28;20464;-37
2021/03/23 05:38:32;;;;;;;25.85;17.58;;;6.70;92.80;;;;;;5064885;28;20032;-36
2021/03/23 05:41:10;;;;;;;26.52;17.33;;;6.70;92.80;;;;;;5064631;28;20029;-36
2021/03/23 05:43:38;;;;;;;23.05;16.50;;;6.70;92.90;;;;;;5065346;28;20125;-35
2021/03/23 05:46:30;;;;;;;25.98;17.20;;;6.70;92.90;;;;;;5064313;28;20334;-39
2021/03/23 05:49:11;;;;;;;22.45;16.60;;;6.60;92.90;;;;;;5064827;28;20252;-39
2021/03/23 05:51:45;;;;;;;24.10;16.50;;;6.60;92.90;;;;;;5064039;28;20054;-39
2021/03/23 05:54:32;;;;;;;22.60;16.50;;;6.50;93.00;;;;;;5063131;28;20043;-36
2021/03/23 05:57:04;;;;;;;25.65;16.48;;;6.50;93.00;;;;;;5063839;28;20028;-36
2021/03/23 05:59:38;;;;;;;25.90;17.20;;;6.50;93.10;;;;;;5066191;28;20096;-37
2021/03/23 06:02:19;;;;;;;27.27;18.92;;;6.40;93.10;;;;;;5067423;28;20431;-34
2021/03/23 06:05:01;;;;;;;24.23;16.92;;;6.40;93.20;;;;;;5064121;28;20020;-38
2021/03/23 06:07:29;;;;;;;24.23;16.95;;;6.30;93.20;;;;;;5065315;28;20032;-38
2021/03/23 06:09:57;;;;;;;23.38;16.15;;;6.30;93.30;;;;;;5077661;28;20146;-38
2021/03/23 06:12:41;;;;;;;21.98;15.13;;;6.20;93.30;;;;;;5069929;28;20123;-37
2021/03/23 06:15:27;;;;;;;23.55;15.88;;;6.20;93.40;;;;;;5067948;28;20374;-38
2021/03/23 06:18:04;;;;;;;25.77;16.58;;;6.10;93.40;;;;;;5064727;28;20019;-38
2021/03/23 06:20:36;;;;;;;20.02;15.00;;;6.10;93.50;;;;;;5064900;28;20029;-42
2021/03/23 06:23:34;;;;;;;22.85;15.50;;;6.10;93.50;;;;;;5063784;28;20491;-37
2021/03/23 06:26:25;;;;;;;22.00;14.63;;;6.10;93.50;;;;;;5044528;28;20021;-37
2021/03/23 06:29:14;;;;;;;23.17;14.73;;;6.10;93.50;;;;;;5062970;28;20021;-37
2021/03/23 06:31:49;;;;;;;21.65;14.88;;;6.10;93.50;;;;;;5064817;28;20029;-36
2021/03/23 06:34:19;;;;;;;24.65;15.00;;;6.10;93.60;;;;;;5063752;28;20132;-38
2021/03/23 06:36:44;;;;;;;21.45;15.38;;;6.10;93.60;;;;;;5064179;28;20055;-36
2021/03/23 06:39:11;;;;;;;23.23;16.52;;;6.20;93.60;;;;;;5064099;28;20535;-40
2021/03/23 06:42:00;;;;;;;23.25;15.95;;;6.20;93.60;;;;;;5062052;28;20036;-38
2021/03/23 06:44:35;;;;;;;24.17;16.35;;;6.20;93.60;;;;;;5062732;28;20123;-39
2021/03/23 06:47:02;;;;;;;22.65;15.77;;;6.20;93.60;;;;;;5063208;28;20025;-37
2021/03/23 06:49:36;;;;;;;20.92;15.32;;;6.20;93.70;;;;;;5060500;28;20024;-35
2021/03/23 06:52:24;;;;;;;25.98;16.70;;;6.20;93.70;;;;;;5063431;28;20027;-38
2021/03/23 06:55:23;;;;;;;26.67;17.35;;;6.30;93.80;;;;;;5063349;28;20048;-35
2021/03/23 06:57:49;;;;;;;22.45;15.98;;;6.30;93.70;;;;;;5063018;28;20049;-39
2021/03/23 07:00:15;;;;;;;24.52;16.13;;;6.30;93.60;;;;;;5064210;28;20021;-40
2021/03/23 07:02:43;;;;;;;27.70;18.08;;;6.30;93.60;;;;;;5064979;28;20530;-36
2021/03/23 07:05:17;;;;;;;25.95;17.33;;;6.30;93.70;;;;;;5065586;28;20039;-38
2021/03/23 07:08:07;;;;;;;24.75;15.43;;;6.40;93.70;;;;;;5060911;28;20566;-37
2021/03/23 07:10:56;;;;;;;26.85;16.40;;;6.40;93.70;;;;;;5059107;28;20471;-35
2021/03/23 07:13:31;;;;;;;27.83;17.25;;;6.40;93.70;;;;;;5056515;28;20098;-36
2021/03/23 07:16:05;;;;;;;30.08;19.00;;;6.50;93.80;;;;;;5061194;28;20035;-37
2021/03/23 07:18:35;;;;;;;40.75;22.95;;;6.60;93.90;;;;;;5063856;28;20033;-36
2021/03/23 07:21:11;;;;;;;46.80;25.75;;;6.60;94.20;;;;;;5067280;28;20404;-37
2021/03/23 07:23:45;;;;;;;44.13;25.98;;;6.70;94.70;;;;;;5067135;28;20492;-40
2021/03/23 07:26:33;;;;;;;46.13;25.52;;;6.80;94.20;;;;;;5064217;28;20070;-33
2021/03/23 07:29:11;;;;;;;56.80;28.77;;;6.90;94.30;;;;;;5067349;28;20065;-38
2021/03/23 07:32:04;;;;;;;45.33;26.75;;;7.00;94.40;;;;;;5067321;28;20407;-38
2021/03/23 07:34:55;;;;;;;46.53;25.52;;;7.20;94.40;;;;;;5066624;28;20036;-36
2021/03/23 07:37:47;;;;;;;52.72;27.45;;;7.30;94.30;;;;;;5067580;28;20028;-34
2021/03/23 07:40:35;;;;;;;48.53;27.23;;;7.40;94.30;;;;;;5065991;28;20017;-36
2021/03/23 07:43:14;;;;;;;50.05;28.52;;;7.50;94.40;;;;;;5067593;28;20119;-39
2021/03/23 07:46:05;;;;;;;48.75;28.60;;;7.50;94.40;;;;;;5066936;28;20021;-37
2021/03/23 07:48:47;;;;;;;53.08;29.40;;;7.60;94.40;;;;;;5067176;28;20024;-38
2021/03/23 07:51:22;;;;;;;48.65;28.95;;;7.70;94.30;;;;;;5067068;28;20090;-35
2021/03/23 07:53:48;;;;;;;52.90;30.85;;;7.70;94.30;;;;;;5046738;28;20095;-38
2021/03/23 07:56:19;;;;;;;59.10;34.33;;;7.80;94.40;;;;;;5062142;28;20028;-38
2021/03/23 07:59:03;;;;;;;58.47;35.13;;;7.90;94.30;;;;;;5066890;28;20131;-39
2021/03/23 08:01:44;;;;;;;64.95;36.67;;;7.90;94.20;;;;;;5065928;28;20040;-38
2021/03/23 08:04:14;;;;;;;65.22;37.67;;;8.00;94.40;;;;;;5047704;28;20127;-40
2021/03/23 08:07:03;;;;;;;61.47;36.47;;;8.00;94.30;;;;;;5061898;28;20036;-38
2021/03/23 08:09:37;;;;;;;52.67;32.55;;;8.10;94.30;;;;;;5046970;28;20047;-37
2021/03/23 08:12:23;;;;;;;67.60;37.97;;;8.30;94.20;;;;;;5064129;28;20039;-36
2021/03/23 08:15:10;;;;;;;67.72;39.65;;;8.40;94.00;;;;;;5067122;28;20028;-36
2021/03/23 08:17:51;;;;;;;73.63;42.38;;;8.40;94.00;;;;;;5066274;28;20086;-33
2021/03/23 08:20:25;;;;;;;64.45;37.72;;;8.30;93.90;;;;;;5066828;28;20039;-38
2021/03/23 08:23:18;;;;;;;71.40;40.58;;;8.30;93.90;;;;;;5066166;28;20025;-37
2021/03/23 08:26:10;;;;;;;;;;;8.30;94.00;;;;;;5067282;28;20043;-38
2021/03/23 08:28:48;;;;;;;73.72;39.90;;;8.30;94.10;;;;;;5064290;28;19915;-35
2021/03/23 08:31:52;;;;;;;66.75;39.22;;;8.20;94.10;;;;;;5066769;28;20028;-38
2021/03/23 08:34:36;;;;;;;60.13;36.00;;;8.20;94.20;;;;;;5065583;28;20036;-39
2021/03/23 08:37:26;;;;;;;61.50;34.85;;;8.10;94.20;;;;;;5065904;28;20100;-39
2021/03/23 08:40:18;;;;;;;70.25;38.90;;;8.10;94.20;;;;;;5066238;28;20043;-36
2021/03/23 08:42:47;;;;;;;61.15;36.42;;;8.10;94.40;;;;;;5065892;28;20071;-38
2021/03/23 08:45:35;;;;;;;59.13;34.50;;;8.00;94.60;;;;;;5066574;28;20070;-37
2021/03/23 08:48:22;;;;;;;66.22;37.40;;;7.90;94.60;;;;;;5066300;28;20035;-37
2021/03/23 08:50:48;;;;;;;70.78;39.55;;;8.00;94.80;;;;;;5045455;28;20053;-34
2021/03/23 08:53:33;;;;;;;64.47;39.75;;;7.90;95.00;;;;;;5061523;28;20013;-39
2021/03/23 08:56:03;;;;;;;66.43;36.00;;;7.90;95.20;;;;;;5045924;28;20033;-36
2021/03/23 08:58:39;;;;;;;62.20;35.60;;;7.90;95.10;;;;;;5062013;28;20438;-33
2021/03/23 09:01:27;;;;;;;68.85;39.28;;;7.90;95.10;;;;;;5045880;28;20079;-35
2021/03/23 09:04:04;;;;;;;69.47;36.42;;;7.90;95.50;;;;;;5062715;28;20032;-33
2021/03/23 09:06:55;;;;;;;55.67;31.65;;;7.90;95.30;;;;;;5067138;28;20036;-34
2021/03/23 09:09:46;;;;;;;55.65;30.92;;;7.90;95.30;;;;;;5066021;28;20040;-34
2021/03/23 09:12:34;;;;;;;56.83;32.83;;;7.90;95.30;;;;;;5065891;28;20667;-40
2021/03/23 09:15:09;;;;;;;62.20;33.30;;;7.90;95.40;;;;;;5064545;28;20112;-38
2021/03/23 09:17:56;;;;;;;58.80;33.53;;;7.90;95.40;;;;;;5065138;28;20032;-36
2021/03/23 09:20:36;;;;;;;59.45;31.00;;;7.90;95.60;;;;;;5054364;28;20027;-35
2021/03/23 09:23:21;;;;;;;69.75;34.63;;;7.90;95.50;;;;;;5054390;28;20063;-37
2021/03/23 09:26:24;;;;;;;62.47;32.70;;;8.00;95.70;;;;;;5064146;28;21445;-37
2021/03/23 09:28:51;;;;;;;59.30;31.20;;;8.10;95.60;;;;;;5064418;28;20020;-37
2021/03/23 09:31:19;;;;;;;63.83;35.67;;;8.20;95.60;;;;;;5065267;28;20496;-39
2021/03/23 09:33:50;;;;;;;61.22;32.28;;;8.30;95.60;;;;;;5065508;28;20086;-34
2021/03/23 09:36:32;;;;;;;59.97;31.77;;;8.30;95.50;;;;;;5065753;28;20411;-38
2021/03/23 09:39:17;;;;;;;65.20;33.55;;;8.40;95.50;;;;;;5065171;28;20031;-34
2021/03/23 09:42:12;;;;;;;67.68;33.28;;;8.40;95.50;;;;;;5052007;28;20569;-37
2021/03/23 09:44:45;;;;;;;58.55;31.38;;;8.50;95.40;;;;;;5066148;28;20033;-38
2021/03/23 09:47:57;;;;;;;58.67;31.40;;;8.60;95.30;;;;;;5066628;28;20070;-37
2021/03/23 09:50:35;;;;;;;62.08;30.23;;;8.60;95.30;;;;;;5046666;28;20362;-37
2021/03/23 09:53:15;;;;;;;54.92;30.17;;;8.70;95.20;;;;;;5064788;28;20024;-36
2021/03/23 09:55:41;;;;;;;57.42;31.77;;;8.70;95.20;;;;;;5065916;28;20031;-35
2021/03/23 09:58:19;;;;;;;59.30;31.58;;;8.70;95.20;;;;;;5065116;28;20139;-36
2021/03/23 10:00:44;;;;;;;57.00;30.58;;;8.70;95.10;;;;;;5064302;28;20060;-34
2021/03/23 10:03:22;;;;;;;56.13;31.17;;;8.70;95.10;;;;;;5065653;28;20135;-38
2021/03/23 10:05:59;;;;;;;54.80;30.45;;;8.70;95.20;;;;;;5061983;28;20036;-39
2021/03/23 10:08:31;;;;;;;49.33;28.13;;;8.70;95.20;;;;;;5045751;28;20032;-38
2021/03/23 10:11:06;;;;;;;55.50;30.23;;;8.70;95.10;;;;;;5061762;28;20032;-39
2021/03/23 10:13:31;;;;;;;55.83;31.35;;;8.70;95.10;;;;;;5062491;28;20021;-39
2021/03/23 10:16:05;;;;;;;52.97;29.35;;;8.80;95.10;;;;;;5057835;28;20027;-35
2021/03/23 10:18:35;;;;;;;54.08;29.55;;;8.80;95.00;;;;;;5066176;28;20024;-38
2021/03/23 10:21:10;;;;;;;53.95;29.98;;;8.80;95.00;;;;;;5064102;28;20031;-37
2021/03/23 10:23:51;;;;;;;46.28;27.38;;;8.90;95.00;;;;;;5068757;28;20036;-39
2021/03/23 10:26:20;;;;;;;46.70;27.50;;;8.90;94.90;;;;;;5066421;28;20028;-34
2021/03/23 10:28:51;;;;;;;54.17;29.25;;;9.00;94.90;;;;;;5066373;28;20023;-34
2021/03/23 10:31:51;;;;;;;55.38;31.13;;;9.00;94.80;;;;;;5063638;28;20119;-34
2021/03/23 10:34:24;;;;;;;52.25;29.65;;;9.10;94.70;;;;;;5044444;28;20036;-35
2021/03/23 10:36:55;;;;;;;52.10;30.00;;;9.10;94.60;;;;;;5067557;28;20028;-36
2021/03/23 10:39:49;;;;;;;57.63;31.77;;;9.20;94.50;;;;;;5065420;28;20025;-34
2021/03/23 10:42:25;;;;;;;55.50;30.00;;;9.20;94.50;;;;;;5066102;28;20523;-37
2021/03/23 10:44:52;;;;;;;51.88;29.40;;;9.20;94.40;;;;;;5072029;28;20723;-38
2021/03/23 10:47:34;;;;;;;52.40;30.25;;;9.20;94.40;;;;;;5069582;28;20131;-39
2021/03/23 10:50:34;;;;;;;59.08;35.30;;;9.20;94.40;;;;;;5067640;28;20392;-34
2021/03/23 10:53:21;;;;;;;55.83;34.13;;;9.20;94.20;;;;;;5051498;28;20064;-36
2021/03/23 10:55:49;;;;;;;59.20;33.67;;;9.10;94.20;;;;;;5067913;28;20028;-36
2021/03/23 10:58:29;;;;;;;61.42;34.60;;;9.10;94.20;;;;;;5070385;28;20052;-38
2021/03/23 11:01:16;;;;;;;61.00;35.65;;;9.10;94.30;;;;;;5071254;28;20298;-40
2021/03/23 11:03:46;;;;;;;62.28;34.95;;;9.20;94.20;;;;;;5066855;28;20093;-38
2021/03/23 11:06:32;;;;;;;60.53;34.05;;;9.30;94.10;;;;;;5068585;28;20037;-36
2021/03/23 11:08:58;;;;;;;58.17;32.80;;;9.30;94.10;;;;;;5068255;28;20097;-34
2021/03/23 11:11:24;;;;;;;59.90;34.17;;;9.40;93.90;;;;;;5067748;28;20052;-38
2021/03/23 11:13:49;;;;;;;56.05;31.95;;;9.50;93.80;;;;;;5066205;28;20028;-39
2021/03/23 11:16:18;;;;;;;50.90;30.10;;;9.50;93.80;;;;;;5066379;28;20088;-37
2021/03/23 11:18:45;;;;;;;52.35;30.92;;;9.60;93.80;;;;;;5065270;28;20397;-37
2021/03/23 11:21:14;;;;;;;60.38;33.38;;;9.70;93.70;;;;;;5067561;28;20024;-37
2021/03/23 11:23:43;;;;;;;54.97;33.75;;;9.80;93.60;;;;;;5068210;28;20041;-40
2021/03/23 11:26:20;;;;;;;54.28;32.92;;;9.90;93.40;;;;;;5068389;28;20044;-35
2021/03/23 11:28:47;;;;;;;55.30;32.85;;;10.00;93.20;;;;;;5066761;28;20024;-36
2021/03/23 11:31:15;;;;;;;59.05;33.65;;;10.00;93.20;;;;;;5067295;28;20060;-37
2021/03/23 11:33:41;;;;;;;47.83;30.15;;;10.00;93.10;;;;;;5067435;28;20017;-35
2021/03/23 11:36:07;;;;;;;61.38;34.78;;;10.00;93.10;;;;;;5068197;28;20155;-36
2021/03/23 11:38:33;;;;;;;57.35;32.58;;;10.00;93.10;;;;;;5065912;28;20017;-38
2021/03/23 11:41:01;;;;;;;52.67;32.83;;;10.00;93.10;;;;;;5070362;28;20032;-36
2021/03/23 11:43:50;;;;;;;50.55;31.63;;;10.00;93.10;;;;;;5062769;28;20372;-39
2021/03/23 11:46:31;;;;;;;58.67;34.63;;;10.00;92.90;;;;;;5076266;28;20096;-36
2021/03/23 11:49:07;;;;;;;60.97;35.10;;;9.90;92.90;;;;;;5061883;28;20063;-36
2021/03/23 11:51:39;;;;;;;62.78;36.95;;;9.90;92.60;;;;;;5066801;28;20047;-33
2021/03/23 11:54:05;;;;;;;65.10;36.17;;;9.90;92.60;;;;;;5065715;28;20030;-40
2021/03/23 11:56:31;;;;;;;60.47;35.55;;;9.90;92.90;;;;;;5065707;28;20485;-38
2021/03/23 11:58:57;;;;;;;56.22;33.95;;;9.90;92.90;;;;;;5066566;28;20077;-36
2021/03/23 12:01:24;;;;;;;56.10;35.67;;;9.90;93.00;;;;;;5065544;28;20058;-38
2021/03/23 12:03:52;;;;;;;61.60;36.40;;;10.00;92.90;;;;;;5068341;28;20047;-40
2021/03/23 12:06:23;;;;;;;64.07;36.28;;;10.10;92.80;;;;;;5067563;28;20032;-38
2021/03/23 12:08:57;;;;;;;59.40;33.15;;;10.10;92.80;;;;;;5062970;28;20109;-36
2021/03/23 12:11:43;;;;;;;64.93;36.22;;;10.10;92.80;;;;;;5058634;28;20124;-39
2021/03/23 12:14:31;;;;;;;60.03;34.15;;;10.20;92.60;;;;;;5067728;28;20046;-35
2021/03/23 12:17:09;;;;;;;53.63;33.17;;;10.30;92.50;;;;;;5066957;28;20211;-36
2021/03/23 12:19:41;;;;;;;50.67;30.65;;;10.50;92.60;;;;;;5068442;28;20162;-32
2021/03/23 12:22:10;;;;;;;58.10;35.08;;;10.60;92.50;;;;;;5067511;28;20321;-37
2021/03/23 12:24:40;;;;;;;60.25;34.42;;;10.70;92.20;;;;;;5061008;28;20483;-33
2021/03/23 12:27:07;;;;;;;58.83;34.67;;;10.70;92.10;;;;;;5067058;28;20044;-39
2021/03/23 12:29:33;;;;;;;56.38;34.00;;;10.60;92.00;;;;;;5068083;28;20044;-36
2021/03/23 12:31:58;;;;;;;53.00;33.00;;;10.60;91.90;;;;;;5076499;28;20614;-39
2021/03/23 12:34:25;;;;;;;56.63;32.60;;;10.60;92.10;;;;;;5070720;28;20388;-34
2021/03/23 12:36:51;;;;;;;53.92;33.42;;;10.50;92.00;;;;;;5071371;28;20036;-35
2021/03/23 12:39:17;;;;;;;55.72;33.75;;;10.50;92.10;;;;;;5069484;28;20461;-36
2021/03/23 12:41:44;;;;;;;56.08;33.72;;;10.60;92.20;;;;;;5071531;28;20142;-35
2021/03/23 12:44:11;;;;;;;57.45;34.90;;;10.60;92.10;;;;;;5070790;28;20114;-37
2021/03/23 12:46:36;;;;;;;59.85;35.13;;;10.60;92.10;;;;;;5066884;28;20115;-35
2021/03/23 12:49:05;;;;;;;58.55;33.90;;;10.60;92.00;;;;;;5074146;28;20368;-36
2021/03/23 12:51:51;;;;;;;56.58;33.72;;;10.50;92.20;;;;;;5065458;28;20116;-39
2021/03/23 12:54:49;;;;;;;60.53;34.75;;;10.50;92.30;;;;;;5068207;28;20044;-38
2021/03/23 12:57:27;;;;;;;58.95;34.58;;;10.70;92.30;;;;;;5063761;28;20013;-39
2021/03/23 12:59:55;;;;;;;59.15;33.60;;;10.70;92.20;;;;;;5066068;28;20433;-37
2021/03/23 13:02:24;;;;;;;59.85;35.03;;;10.80;92.20;;;;;;5068683;28;20083;-39
2021/03/23 13:04:50;;;;;;;53.40;32.40;;;10.90;92.10;;;;;;5061454;28;20094;-39
2021/03/23 13:07:24;;;;;;;60.05;33.85;;;10.90;92.10;;;;;;5072568;28;20032;-36
2021/03/23 13:09:52;;;;;;;58.13;33.47;;;11.00;92.00;;;;;;5073025;28;20048;-33